createdAt,value
2024-01-25T00:00:48.451Z,100.00
2024-01-25T00:03:15.145Z,100.00
2024-01-25T00:05:41.986Z,100.00
2024-01-25T00:08:08.773Z,99.74
2024-01-25T00:10:35.485Z,100.00
2024-01-25T00:13:02.869Z,100.00
2024-01-25T00:15:30.042Z,100.00
2024-01-25T00:17:58.178Z,100.00
2024-01-25T00:20:25.244Z,100.00
2024-01-25T00:22:52.126Z,100.00
2024-01-25T00:25:19.115Z,100.00
2024-01-25T00:27:46.270Z,100.00
2024-01-25T00:30:13.151Z,100.00
2024-01-25T00:32:39.907Z,100.00
2024-01-25T00:35:07.369Z,100.00
2024-01-25T00:37:34.380Z,100.00
2024-01-25T00:40:01.463Z,100.00
2024-01-25T00:42:29.544Z,100.00
2024-01-25T00:44:56.588Z,100.00
2024-01-25T00:47:24.167Z,100.00
2024-01-25T00:49:51.303Z,100.00
2024-01-25T00:52:18.507Z,100.00
2024-01-25T00:54:45.555Z,100.00
2024-01-25T00:57:12.831Z,98.37
2024-01-25T00:59:39.892Z,96.76
2024-01-25T01:02:12.034Z,99.99
2024-01-25T01:04:47.264Z,100.00
2024-01-25T01:07:16.316Z,100.00
2024-01-25T01:09:43.381Z,100.00
2024-01-25T01:12:10.307Z,100.00
2024-01-25T01:14:37.053Z,100.00
2024-01-25T01:17:04.263Z,100.00
2024-01-25T01:19:30.992Z,100.00
2024-01-25T01:21:57.976Z,100.00
2024-01-25T01:24:24.754Z,100.00
2024-01-25T01:26:51.860Z,100.00
2024-01-25T01:29:19.489Z,100.00
2024-01-25T01:31:47.856Z,100.00
2024-01-25T01:34:15.498Z,100.00
2024-01-25T01:36:42.746Z,100.00
2024-01-25T01:39:09.385Z,100.00
2024-01-25T01:41:36.186Z,100.00
2024-01-25T01:44:03.124Z,100.00
2024-01-25T01:46:38.928Z,100.00
2024-01-25T01:49:06.400Z,98.48
2024-01-25T01:51:34.457Z,100.00
2024-01-25T01:54:06.814Z,99.95
2024-01-25T01:56:34.254Z,100.00
2024-01-25T01:59:03.293Z,100.00
2024-01-25T02:01:30.528Z,99.94
2024-01-25T02:03:57.593Z,98.20
2024-01-25T02:06:27.525Z,100.00
2024-01-25T02:08:54.466Z,100.00
2024-01-25T02:11:21.581Z,100.00
2024-01-25T02:13:51.072Z,100.00
2024-01-25T02:16:19.445Z,100.00
2024-01-25T02:18:46.647Z,100.00
2024-01-25T02:21:13.383Z,100.00
2024-01-25T02:23:40.387Z,100.00
2024-01-25T02:26:07.835Z,100.00
2024-01-25T02:28:35.914Z,100.00
2024-01-25T02:31:04.060Z,100.00
2024-01-25T02:33:31.364Z,100.00
2024-01-25T02:35:58.784Z,100.00
2024-01-25T02:38:25.743Z,100.00
2024-01-25T02:40:54.716Z,100.00
2024-01-25T02:43:21.782Z,100.00
2024-01-25T02:45:49.756Z,100.00
2024-01-25T02:48:16.789Z,100.00
2024-01-25T02:50:43.789Z,100.00
2024-01-25T02:53:10.583Z,100.00
2024-01-25T02:55:37.374Z,100.00
2024-01-25T02:58:04.313Z,100.00
2024-01-25T03:00:31.174Z,100.00
2024-01-25T03:02:58.155Z,100.00
2024-01-25T03:05:25.199Z,100.00
2024-01-25T03:07:52.116Z,100.00
2024-01-25T03:10:19.161Z,100.00
2024-01-25T03:12:46.001Z,100.00
2024-01-25T03:15:13.158Z,100.00
2024-01-25T03:17:39.805Z,100.00
2024-01-25T03:20:07.507Z,100.00
2024-01-25T03:22:34.390Z,100.00
2024-01-25T03:25:01.172Z,100.00
2024-01-25T03:27:27.976Z,100.00
2024-01-25T03:29:54.769Z,100.00
2024-01-25T03:32:21.511Z,100.00
2024-01-25T03:34:48.784Z,100.00
2024-01-25T03:37:15.873Z,100.00
2024-01-25T03:39:43.178Z,100.00
2024-01-25T03:42:10.002Z,100.00
2024-01-25T03:44:36.825Z,100.00
2024-01-25T03:47:03.691Z,100.00
2024-01-25T03:49:30.679Z,100.00
2024-01-25T03:51:57.557Z,100.00
2024-01-25T03:54:24.451Z,100.00
2024-01-25T03:56:51.250Z,100.00
2024-01-25T03:59:18.351Z,100.00
2024-01-25T04:01:46.181Z,100.00
2024-01-25T04:04:14.318Z,100.00
2024-01-25T04:06:45.384Z,100.00
2024-01-25T04:09:12.337Z,100.00
2024-01-25T04:11:39.182Z,100.00
2024-01-25T04:14:06.182Z,100.00
2024-01-25T04:16:34.476Z,100.00
2024-01-25T04:19:01.558Z,100.00
2024-01-25T04:21:29.064Z,100.00
2024-01-25T04:23:55.900Z,100.00
2024-01-25T04:26:22.760Z,97.29
2024-01-25T04:28:49.488Z,99.67
2024-01-25T04:31:18.229Z,98.19
2024-01-25T04:33:48.314Z,100.00
2024-01-25T04:36:15.851Z,100.00
2024-01-25T04:38:42.667Z,100.00
2024-01-25T04:41:09.444Z,100.00
2024-01-25T04:43:37.807Z,100.00
2024-01-25T04:46:05.367Z,98.45
2024-01-25T04:48:32.685Z,100.00
2024-01-25T04:51:00.356Z,100.00
2024-01-25T04:53:27.274Z,100.00
2024-01-25T04:55:56.237Z,100.00
2024-01-25T04:58:23.574Z,100.00
2024-01-25T05:00:52.245Z,100.00
2024-01-25T05:03:21.066Z,100.00
2024-01-25T05:05:47.999Z,100.00
2024-01-25T05:08:14.973Z,100.00
2024-01-25T05:10:41.819Z,100.00
2024-01-25T05:13:10.392Z,100.00
2024-01-25T05:15:37.435Z,100.00
2024-01-25T05:18:04.854Z,100.00
2024-01-25T05:20:35.611Z,100.00
2024-01-25T05:23:06.384Z,100.00
2024-01-25T05:25:33.824Z,100.00
2024-01-25T05:28:01.288Z,100.00
2024-01-25T05:30:29.022Z,100.00
2024-01-25T05:32:56.568Z,100.00
2024-01-25T05:35:25.046Z,99.32
2024-01-25T05:37:52.080Z,99.12
2024-01-25T05:40:19.345Z,100.00
2024-01-25T05:42:46.545Z,100.00
2024-01-25T05:45:13.782Z,100.00
2024-01-25T05:47:40.767Z,100.00
2024-01-25T05:50:08.232Z,100.00
2024-01-25T05:52:38.078Z,100.00
2024-01-25T05:55:06.361Z,100.00
2024-01-25T05:57:33.792Z,100.00
2024-01-25T06:00:00.719Z,99.52
2024-01-25T06:02:27.644Z,96.05
2024-01-25T06:04:54.654Z,93.37
2024-01-25T06:07:21.741Z,87.96
2024-01-25T06:09:48.503Z,84.79
2024-01-25T06:12:15.570Z,81.90
2024-01-25T06:14:42.412Z,80.97
2024-01-25T06:17:09.215Z,81.62
2024-01-25T06:19:36.149Z,81.08
2024-01-25T06:22:06.295Z,76.19
2024-01-25T06:24:33.171Z,77.25
2024-01-25T06:27:00.690Z,75.64
2024-01-25T06:29:27.505Z,75.00
2024-01-25T06:31:54.288Z,76.43
2024-01-25T06:34:21.215Z,77.92
2024-01-25T06:36:48.191Z,77.67
2024-01-25T06:39:15.512Z,82.92
2024-01-25T06:41:43.081Z,84.21
2024-01-25T06:44:09.955Z,84.22
2024-01-25T06:46:36.802Z,83.18
2024-01-25T06:49:04.264Z,87.01
2024-01-25T06:51:31.467Z,84.16
2024-01-25T06:53:58.251Z,84.09
2024-01-25T06:56:25.000Z,85.78
2024-01-25T06:58:51.796Z,90.35
2024-01-25T07:01:24.254Z,86.03
2024-01-25T07:03:52.098Z,89.75
2024-01-25T07:06:20.230Z,98.22
2024-01-25T07:08:47.475Z,96.20
2024-01-25T07:11:14.348Z,83.25
2024-01-25T07:13:42.352Z,81.42
2024-01-25T07:16:09.467Z,77.86
2024-01-25T07:18:36.562Z,83.53
2024-01-25T07:21:03.780Z,87.02
2024-01-25T07:23:34.976Z,76.65
2024-01-25T07:26:01.687Z,75.06
2024-01-25T07:28:28.758Z,81.80
2024-01-25T07:30:56.057Z,79.97
2024-01-25T07:33:23.610Z,75.98
2024-01-25T09:14:17.100Z,64.45
2024-01-25T09:16:43.880Z,61.75
2024-01-25T09:19:12.059Z,58.03
2024-01-25T09:21:41.085Z,55.37
2024-01-25T09:24:08.485Z,55.78
2024-01-25T09:26:35.216Z,57.26
2024-01-25T09:29:02.716Z,55.52
2024-01-25T09:31:29.933Z,57.34
2024-01-25T09:33:57.020Z,57.50
2024-01-25T09:36:25.132Z,57.58
2024-01-25T09:38:52.314Z,57.03
2024-01-25T09:41:19.079Z,56.52
2024-01-25T09:43:47.040Z,56.14
2024-01-25T09:46:16.654Z,55.95
2024-01-25T09:48:49.338Z,54.54
2024-01-25T09:51:17.099Z,53.77
2024-01-25T09:53:46.647Z,54.04
2024-01-25T09:56:14.341Z,53.03
2024-01-25T09:58:47.137Z,50.83
2024-01-25T10:01:16.429Z,50.19
2024-01-25T10:03:44.408Z,50.44
2024-01-25T10:06:15.352Z,45.71
2024-01-25T10:08:43.038Z,45.02
2024-01-25T10:11:09.920Z,45.76
2024-01-25T10:13:51.991Z,43.24
2024-01-25T10:16:20.489Z,41.10
2024-01-25T10:18:48.661Z,43.67
2024-01-25T10:21:16.936Z,43.03
2024-01-25T10:23:48.901Z,43.74
2024-01-25T10:26:17.728Z,45.80
2024-01-25T10:28:52.100Z,44.82
2024-01-25T10:31:19.512Z,44.88
2024-01-25T10:33:48.445Z,42.72
2024-01-25T10:36:15.732Z,42.35
2024-01-25T10:38:45.523Z,40.36
2024-01-25T10:41:17.486Z,40.96
2024-01-25T10:43:50.117Z,40.98
2024-01-25T10:46:18.084Z,39.54
2024-01-25T10:48:51.181Z,42.13
2024-01-25T10:51:20.807Z,42.08
2024-01-25T10:53:47.912Z,41.42
2024-01-25T10:56:15.025Z,41.73
2024-01-25T10:58:43.211Z,41.83
2024-01-25T11:01:16.279Z,40.09
2024-01-25T11:03:47.367Z,40.75
2024-01-25T11:06:15.150Z,40.81
2024-01-25T11:08:42.383Z,40.60
2024-01-25T11:11:12.031Z,40.82
2024-01-25T11:13:43.200Z,41.00
2024-01-25T11:16:28.524Z,38.68
2024-01-25T11:19:00.557Z,38.95
2024-01-25T11:21:40.254Z,38.07
2024-01-25T11:24:12.577Z,36.60
2024-01-25T11:26:39.418Z,38.03
2024-01-25T11:29:06.593Z,37.22
2024-01-25T11:31:33.435Z,35.48
2024-01-25T11:34:01.273Z,36.68
2024-01-25T11:36:29.046Z,33.13
2024-01-25T11:38:56.601Z,36.72
2024-01-25T11:41:23.417Z,36.39
2024-01-25T11:43:50.476Z,35.81
2024-01-25T11:46:19.254Z,34.26
2024-01-25T11:48:46.857Z,33.23
2024-01-25T11:51:14.394Z,34.20
2024-01-25T11:53:42.258Z,33.87
2024-01-25T11:56:12.057Z,33.37
2024-01-25T11:58:42.154Z,33.39
2024-01-25T12:01:10.956Z,33.31
2024-01-25T12:03:42.144Z,30.34
2024-01-25T12:06:12.161Z,30.31
2024-01-25T12:08:39.530Z,33.78
2024-01-25T12:11:08.352Z,35.18
2024-01-25T12:13:37.047Z,32.83
2024-01-25T12:16:06.084Z,33.73
2024-01-25T12:18:33.876Z,32.70
2024-01-25T12:21:02.215Z,31.73
2024-01-25T12:23:37.110Z,29.57
2024-01-25T12:26:06.914Z,30.31
2024-01-25T12:28:34.275Z,29.62
2024-01-25T12:31:02.474Z,28.24
2024-01-25T12:33:29.521Z,29.88
2024-01-25T12:35:56.954Z,30.99
2024-01-25T12:38:24.306Z,30.67
2024-01-25T12:40:51.533Z,30.20
2024-01-25T12:43:22.644Z,30.77
2024-01-25T12:45:49.975Z,31.60
2024-01-25T12:48:18.235Z,31.91
2024-01-25T12:50:45.580Z,30.59
2024-01-25T12:53:13.068Z,30.82
2024-01-25T12:55:40.084Z,30.52
2024-01-25T12:58:06.963Z,27.84
2024-01-25T13:00:34.494Z,28.49
2024-01-25T13:03:04.839Z,29.83
2024-01-25T13:05:35.291Z,31.14
2024-01-25T13:08:05.447Z,29.24
2024-01-25T13:10:32.196Z,29.97
2024-01-25T13:12:59.513Z,30.28
2024-01-25T13:15:27.464Z,29.38
2024-01-25T13:17:54.247Z,30.76
2024-01-25T13:20:21.450Z,30.03
2024-01-25T13:22:48.189Z,30.88
2024-01-25T13:25:16.320Z,29.46
2024-01-25T13:27:43.463Z,28.46
2024-01-25T13:30:13.066Z,28.14
2024-01-25T13:32:40.248Z,28.92
2024-01-25T13:35:08.266Z,29.26
2024-01-25T13:37:35.191Z,28.41
2024-01-25T13:40:01.872Z,27.01
2024-01-25T13:42:28.629Z,27.74
2024-01-25T13:44:55.411Z,26.88
2024-01-25T13:47:25.752Z,26.35
2024-01-25T13:49:54.003Z,25.18
2024-01-25T13:52:21.416Z,25.50
2024-01-25T13:54:50.616Z,28.86
2024-01-25T13:57:18.201Z,29.12
2024-01-25T13:59:45.068Z,29.44
2024-01-25T14:02:11.960Z,26.88
2024-01-25T14:04:39.178Z,28.90
2024-01-25T14:07:06.788Z,31.33
2024-01-25T14:09:34.179Z,29.67
2024-01-25T14:12:01.315Z,28.47
2024-01-25T14:14:28.302Z,27.50
2024-01-25T14:17:00.623Z,27.03
2024-01-25T14:19:28.690Z,30.77
2024-01-25T14:22:04.653Z,27.12
2024-01-25T14:24:47.260Z,30.33
2024-01-25T14:27:16.048Z,28.61
2024-01-25T14:29:43.448Z,29.42
2024-01-25T14:32:10.583Z,30.16
2024-01-25T14:34:37.638Z,33.03
2024-01-25T14:37:04.696Z,31.41
2024-01-25T14:39:31.647Z,33.76
2024-01-25T14:41:59.097Z,31.88
2024-01-25T14:44:25.834Z,31.65
2024-01-25T14:46:52.708Z,31.71
2024-01-25T14:49:19.434Z,33.81
2024-01-25T14:51:46.357Z,35.18
2024-01-25T14:54:13.192Z,33.12
2024-01-25T14:56:39.861Z,33.02
2024-01-25T14:59:06.644Z,33.97
2024-01-25T15:01:33.521Z,34.21
2024-01-25T15:04:00.720Z,35.90
2024-01-25T15:06:27.827Z,35.84
2024-01-25T15:08:54.660Z,38.82
2024-01-25T15:11:21.408Z,39.67
2024-01-25T15:13:49.797Z,42.35
2024-01-25T15:16:20.207Z,41.50
2024-01-25T15:18:48.443Z,40.93
2024-01-25T15:21:15.665Z,38.55
2024-01-25T15:23:42.491Z,41.25
2024-01-25T15:26:09.308Z,43.08
2024-01-25T15:28:36.065Z,36.52
2024-01-25T15:31:03.186Z,46.03
2024-01-25T15:33:30.343Z,48.47
2024-01-25T15:35:57.345Z,46.42
2024-01-25T15:38:24.264Z,46.01
2024-01-25T15:40:52.045Z,48.48
2024-01-25T15:43:19.335Z,47.27
2024-01-25T15:45:46.393Z,48.01
2024-01-25T15:48:13.256Z,43.83
2024-01-25T15:50:40.913Z,46.00
2024-01-25T15:53:07.856Z,49.14
2024-01-25T15:55:35.301Z,51.60
2024-01-25T15:58:02.239Z,50.42
2024-01-25T16:00:29.090Z,49.80
2024-01-25T16:02:57.920Z,49.34
2024-01-25T16:05:25.026Z,47.97
2024-01-25T16:07:52.420Z,47.59
2024-01-25T16:10:21.471Z,51.21
2024-01-25T16:12:50.168Z,53.11
2024-01-25T16:15:18.612Z,54.22
2024-01-25T16:17:45.696Z,56.02
2024-01-25T16:20:13.707Z,54.17
2024-01-25T16:22:40.502Z,52.80
2024-01-25T16:25:07.769Z,51.81
2024-01-25T16:27:34.643Z,52.00
2024-01-25T16:30:01.558Z,55.82
2024-01-25T16:32:28.284Z,60.17
2024-01-25T16:34:55.486Z,62.61
2024-01-25T16:37:22.307Z,67.73
2024-01-25T16:39:49.233Z,69.98
2024-01-25T16:42:16.057Z,74.38
2024-01-25T16:44:42.821Z,74.22
2024-01-25T16:47:09.581Z,70.26
2024-01-25T16:49:37.329Z,66.22
2024-01-25T16:52:04.820Z,68.12
2024-01-25T16:54:31.886Z,68.38
2024-01-25T16:56:58.774Z,65.25
2024-01-25T16:59:25.689Z,67.99
2024-01-25T17:01:52.612Z,68.15
2024-01-25T17:04:20.283Z,68.80
2024-01-25T17:06:47.945Z,68.56
2024-01-25T17:09:15.011Z,69.25
2024-01-25T17:11:42.301Z,72.07
2024-01-25T17:14:10.141Z,72.61
2024-01-25T17:16:37.684Z,74.83
2024-01-25T17:19:04.882Z,78.18
2024-01-25T17:21:31.970Z,81.99
2024-01-25T17:23:59.353Z,81.36
2024-01-25T17:26:26.276Z,79.95
2024-01-25T17:28:54.724Z,78.93
2024-01-25T17:31:21.688Z,78.26
2024-01-25T17:33:49.213Z,77.32
2024-01-25T17:36:18.556Z,75.95
2024-01-25T17:38:45.734Z,70.69
2024-01-25T17:41:12.622Z,70.04
2024-01-25T17:43:39.482Z,68.36
2024-01-25T17:46:06.587Z,69.97
2024-01-25T17:48:35.218Z,75.08
2024-01-25T17:51:02.644Z,81.20
2024-01-25T17:53:29.368Z,85.79
2024-01-25T17:55:57.510Z,87.22
2024-01-25T17:58:24.967Z,87.56
2024-01-25T18:00:53.249Z,91.35
2024-01-25T18:03:20.609Z,91.45
2024-01-25T18:05:47.583Z,92.12
2024-01-25T18:08:14.831Z,90.46
2024-01-25T18:10:42.640Z,89.36
2024-01-25T18:13:13.695Z,88.15
2024-01-25T18:15:43.672Z,91.18
2024-01-25T18:18:26.081Z,90.77
2024-01-25T18:21:02.918Z,91.12
2024-01-25T18:23:35.647Z,93.15
2024-01-25T18:26:07.863Z,92.23
2024-01-25T18:28:38.845Z,98.51
2024-01-25T18:31:06.598Z,100.00
2024-01-25T18:33:37.899Z,100.00
2024-01-25T18:36:12.121Z,100.00
2024-01-25T18:38:46.386Z,94.55
2024-01-25T18:41:17.564Z,95.97
2024-01-25T18:43:48.980Z,97.90
2024-01-25T18:46:19.956Z,98.71
2024-01-25T18:48:47.748Z,96.58
2024-01-25T18:51:14.709Z,100.00
2024-01-25T18:53:41.782Z,100.00
2024-01-25T18:56:09.159Z,100.00
2024-01-25T18:58:36.184Z,100.00
2024-01-25T19:01:10.063Z,97.09
2024-01-25T19:03:41.349Z,91.85
2024-01-25T19:06:13.609Z,93.41
2024-01-25T19:08:44.501Z,93.40
2024-01-25T19:11:15.016Z,92.63
2024-01-25T19:13:42.429Z,86.41
2024-01-25T19:16:09.464Z,85.78
2024-01-25T19:18:36.267Z,96.57
2024-01-25T19:21:04.099Z,97.80
2024-01-25T19:23:31.848Z,97.44
2024-01-25T19:25:59.000Z,93.50
2024-01-25T19:28:25.765Z,100.00
2024-01-25T19:30:52.571Z,100.00
2024-01-25T19:33:19.972Z,100.00
2024-01-25T19:35:52.984Z,100.00
2024-01-25T19:38:21.022Z,97.98
2024-01-25T19:40:47.806Z,100.00
2024-01-25T19:43:14.640Z,100.00
2024-01-25T19:45:41.710Z,100.00
2024-01-25T19:48:08.790Z,94.50
2024-01-25T19:50:35.610Z,90.77
2024-01-25T19:53:08.943Z,89.88
2024-01-25T19:55:40.203Z,92.57
2024-01-25T19:58:11.101Z,98.49
2024-01-25T20:00:39.134Z,100.00
2024-01-25T20:03:06.310Z,99.01
2024-01-25T20:05:33.462Z,97.89
2024-01-25T20:08:00.248Z,98.75
2024-01-25T20:10:27.730Z,99.29
2024-01-25T20:12:54.990Z,99.44
2024-01-25T20:15:26.179Z,98.02
2024-01-25T20:17:57.199Z,96.75
2024-01-25T20:20:42.383Z,100.00
2024-01-25T20:23:14.275Z,100.00
2024-01-25T20:25:41.020Z,100.00
2024-01-25T20:28:08.445Z,100.00
2024-01-25T20:30:41.533Z,100.00
2024-01-25T20:33:12.796Z,100.00
2024-01-25T20:35:47.302Z,100.00
2024-01-25T20:38:19.045Z,100.00
2024-01-25T20:40:49.914Z,100.00
2024-01-25T20:43:21.487Z,100.00
2024-01-25T20:45:55.173Z,100.00
2024-01-25T20:48:25.865Z,100.00
2024-01-25T20:50:56.970Z,100.00
2024-01-25T20:53:32.659Z,100.00
2024-01-25T20:56:06.846Z,100.00
2024-01-25T20:58:38.901Z,100.00
2024-01-25T21:01:10.372Z,100.00
2024-01-25T21:03:42.705Z,100.00
2024-01-25T21:06:14.741Z,100.00
2024-01-25T21:08:46.504Z,100.00
2024-01-25T21:11:17.997Z,100.00
2024-01-25T21:13:50.323Z,100.00
2024-01-25T21:16:25.186Z,100.00
2024-01-25T21:18:56.563Z,100.00
2024-01-25T21:21:27.305Z,100.00
2024-01-25T21:24:04.513Z,100.00
2024-01-25T21:26:36.188Z,100.00
2024-01-25T21:29:07.543Z,100.00
2024-01-25T21:31:38.481Z,100.00
2024-01-25T21:34:14.231Z,100.00
2024-01-25T21:36:45.559Z,100.00
2024-01-25T21:39:13.517Z,100.00
2024-01-25T21:41:40.289Z,97.73
2024-01-25T21:44:07.971Z,100.00
2024-01-25T21:46:34.777Z,97.10
2024-01-25T21:49:02.165Z,97.48
2024-01-25T21:51:29.146Z,97.90
2024-01-25T21:53:55.895Z,99.22
2024-01-25T21:56:22.732Z,100.00
2024-01-25T21:58:49.568Z,97.25
2024-01-25T22:01:16.464Z,95.41
2024-01-25T22:03:43.445Z,93.62
2024-01-25T22:06:10.280Z,100.00
2024-01-25T22:08:37.063Z,100.00
2024-01-25T22:11:03.955Z,100.00
2024-01-25T22:13:31.839Z,100.00
2024-01-25T22:15:58.858Z,100.00
2024-01-25T22:18:25.896Z,100.00
2024-01-25T22:20:52.698Z,100.00
2024-01-25T22:23:19.505Z,100.00
2024-01-25T22:25:46.292Z,100.00
2024-01-25T22:28:13.755Z,100.00
2024-01-25T22:30:40.819Z,100.00
2024-01-25T22:33:07.791Z,100.00
2024-01-25T22:35:34.606Z,100.00
2024-01-25T22:38:01.401Z,100.00
2024-01-25T22:40:29.426Z,100.00
2024-01-25T22:42:56.265Z,100.00
2024-01-25T22:45:24.164Z,100.00
2024-01-25T22:47:51.251Z,100.00
2024-01-25T22:50:18.081Z,100.00
2024-01-25T22:52:44.906Z,100.00
2024-01-25T22:55:12.327Z,100.00
2024-01-25T22:57:39.199Z,100.00
2024-01-25T23:00:10.903Z,100.00
2024-01-25T23:02:37.714Z,100.00
2024-01-25T23:05:04.887Z,100.00
2024-01-25T23:07:31.526Z,100.00
2024-01-25T23:09:59.072Z,100.00
2024-01-25T23:12:26.040Z,100.00
2024-01-25T23:14:52.836Z,100.00
2024-01-25T23:17:19.572Z,100.00
2024-01-25T23:19:48.337Z,100.00
2024-01-25T23:22:15.296Z,100.00
2024-01-25T23:24:42.108Z,100.00
2024-01-25T23:27:09.491Z,100.00
2024-01-25T23:29:36.244Z,100.00
2024-01-25T23:32:03.056Z,100.00
2024-01-25T23:34:29.906Z,100.00
2024-01-25T23:36:56.723Z,100.00
2024-01-25T23:39:23.522Z,100.00
2024-01-25T23:41:50.318Z,100.00
2024-01-25T23:44:17.601Z,100.00
2024-01-25T23:46:44.413Z,100.00
2024-01-25T23:49:11.496Z,100.00
2024-01-25T23:51:42.114Z,100.00
2024-01-25T23:54:09.237Z,100.00
2024-01-25T23:56:38.376Z,100.00
2024-01-25T23:59:05.207Z,100.00
